Time;durP1;ratioP1;P1;durP2;ratioP2;P2;SDS_P1;SDS_P2;PMS_P1;PMS_P2;Temp;Humidity;BMP_temperature;BMP_pressure;BME280_temperature;BME280_humidity;BME280_pressure;Samples;Min_cycle;Max_cycle;Signal;HPM_P1;HPM_P2
2022/01/08 00:01:27;;;;;;;5.60;2.50;;;3.70;99.90;;;;;;5006525;28;20257;-54
2022/01/08 00:03:53;;;;;;;2.73;1.53;;;3.60;99.90;;;;;;5004583;28;20552;-55
2022/01/08 00:06:19;;;;;;;2.10;1.60;;;4.00;99.90;;;;;;5004862;28;20203;-54
2022/01/08 00:08:45;;;;;;;1.60;1.50;;;3.70;99.90;;;;;;4997774;28;20250;-54
2022/01/08 00:11:14;;;;;;;1.63;1.40;;;3.60;99.90;;;;;;5003434;28;20954;-54
2022/01/08 00:13:40;;;;;;;2.25;1.45;;;3.50;99.90;;;;;;5014520;28;20439;-55
2022/01/08 00:16:07;;;;;;;3.03;2.17;;;3.50;99.90;;;;;;4999568;28;20524;-55
2022/01/08 00:18:32;;;;;;;2.25;1.90;;;3.80;99.90;;;;;;5008736;28;20199;-55
2022/01/08 00:20:58;;;;;;;2.37;1.70;;;3.80;99.90;;;;;;5013837;28;20546;-54
2022/01/08 00:23:24;;;;;;;2.13;1.70;;;3.90;99.90;;;;;;5008653;28;20444;-55
2022/01/08 00:25:49;;;;;;;1.90;1.67;;;3.40;99.90;;;;;;5004386;28;20306;-55
2022/01/08 00:28:15;;;;;;;1.90;1.67;;;3.90;99.90;;;;;;5009418;28;20229;-54
2022/01/08 00:30:41;;;;;;;3.00;2.20;;;3.80;99.90;;;;;;5002339;28;20226;-55
2022/01/08 00:33:07;;;;;;;2.17;1.90;;;3.90;99.90;;;;;;5005522;28;20439;-54
2022/01/08 00:35:33;;;;;;;2.33;1.73;;;3.30;99.90;;;;;;5014625;28;20669;-54
2022/01/08 00:38:00;;;;;;;2.50;1.77;;;3.70;99.90;;;;;;5010340;28;20190;-55
2022/01/08 00:40:26;;;;;;;1.85;1.35;;;3.30;99.90;;;;;;5012466;28;20203;-55
2022/01/08 00:42:51;;;;;;;3.50;2.17;;;4.10;99.90;;;;;;5010776;28;20187;-54
2022/01/08 00:45:17;;;;;;;2.53;1.50;;;4.10;99.90;;;;;;5006015;28;20316;-54
2022/01/08 00:47:43;;;;;;;1.70;1.60;;;4.00;99.90;;;;;;5011084;28;20266;-54
2022/01/08 00:50:12;;;;;;;1.83;1.73;;;4.40;99.90;;;;;;5009308;28;20991;-54
2022/01/08 00:52:40;;;;;;;3.45;2.30;;;4.20;99.90;;;;;;5005550;28;20265;-54
2022/01/08 00:55:07;;;;;;;2.40;1.45;;;3.70;99.90;;;;;;5008440;28;20189;-54
2022/01/08 00:57:32;;;;;;;1.83;1.65;;;4.20;99.90;;;;;;5010033;28;20220;-54
2022/01/08 00:59:58;;;;;;;2.00;1.57;;;4.30;99.90;;;;;;5006247;28;20635;-55
2022/01/08 01:02:24;;;;;;;2.50;1.80;;;3.70;99.90;;;;;;5015776;28;20184;-54
2022/01/08 01:04:49;;;;;;;1.70;1.60;;;4.30;99.90;;;;;;5008418;28;20185;-54
2022/01/08 01:07:15;;;;;;;2.07;1.87;;;4.20;99.90;;;;;;5001936;28;20183;-54
2022/01/08 01:09:41;;;;;;;2.27;2.07;;;4.30;99.90;;;;;;5012672;28;20277;-55
2022/01/08 01:12:07;;;;;;;1.90;1.70;;;4.40;99.90;;;;;;5015909;28;20433;-54
2022/01/08 01:14:33;;;;;;;2.08;1.85;;;4.30;99.90;;;;;;5009082;28;20191;-54
2022/01/08 01:16:58;;;;;;;2.53;2.10;;;4.60;99.90;;;;;;5006904;28;20176;-55
2022/01/08 01:19:24;;;;;;;3.23;2.03;;;4.30;99.90;;;;;;5007567;28;20552;-55
2022/01/08 01:21:52;;;;;;;1.50;1.40;;;4.40;99.90;;;;;;5008488;28;20183;-55
2022/01/08 01:24:21;;;;;;;2.67;1.90;;;4.40;99.90;;;;;;5002571;28;20200;-55
2022/01/08 01:48:23;;;;;;;2.92;2.00;;;4.80;99.90;;;;;;5008605;28;20242;-54
2022/01/08 01:50:49;;;;;;;1.93;1.50;;;4.40;99.90;;;;;;5013057;28;20696;-54
2022/01/08 01:53:15;;;;;;;2.08;1.85;;;4.50;99.90;;;;;;5004613;28;20441;-55
2022/01/08 01:55:45;;;;;;;2.47;2.00;;;4.50;99.90;;;;;;5011463;28;20628;-54
2022/01/08 01:58:11;;;;;;;2.75;1.92;;;4.10;99.90;;;;;;5009580;28;20513;-55
2022/01/08 02:00:37;;;;;;;2.17;1.87;;;4.50;99.90;;;;;;5002700;28;20219;-54
2022/01/08 02:03:03;;;;;;;1.63;1.40;;;4.60;99.90;;;;;;5012286;28;20506;-55
2022/01/08 02:05:29;;;;;;;5.25;1.77;;;4.00;99.90;;;;;;5011647;28;20262;-54
2022/01/08 02:07:55;;;;;;;2.10;1.55;;;4.60;99.90;;;;;;5010486;28;20181;-54
2022/01/08 02:10:22;;;;;;;1.70;1.60;;;4.70;99.90;;;;;;5002802;28;20235;-55
2022/01/08 02:12:48;;;;;;;1.77;1.10;;;4.60;99.90;;;;;;5014422;28;20714;-54
2022/01/08 02:15:14;;;;;;;2.85;1.40;;;4.60;99.90;;;;;;5003311;28;20265;-54
2022/01/08 02:17:40;;;;;;;1.50;1.30;;;4.50;99.90;;;;;;5012735;28;20233;-53
2022/01/08 02:20:06;;;;;;;4.63;1.87;;;4.60;99.90;;;;;;5011219;28;20290;-55
2022/01/08 02:22:32;;;;;;;3.20;1.70;;;4.40;99.90;;;;;;5004526;28;21068;-53
2022/01/08 02:24:58;;;;;;;3.10;1.87;;;4.80;99.90;;;;;;5010093;28;20191;-54
2022/01/08 02:27:23;;;;;;;1.80;1.70;;;4.30;99.90;;;;;;5004432;28;20195;-54
2022/01/08 02:29:50;;;;;;;1.40;1.27;;;4.70;99.90;;;;;;5007779;28;20265;-54
2022/01/08 02:32:19;;;;;;;1.30;1.20;;;4.70;99.90;;;;;;5003408;28;20886;-54
2022/01/08 02:34:46;;;;;;;1.50;1.40;;;5.00;99.90;;;;;;5004492;28;20295;-54
2022/01/08 02:37:14;;;;;;;1.40;1.20;;;5.00;99.90;;;;;;5004576;28;20528;-54
2022/01/08 02:39:42;;;;;;;2.75;1.48;;;4.90;99.90;;;;;;5004824;28;20199;-54
2022/01/08 02:42:12;;;;;;;4.65;1.20;;;4.80;99.90;;;;;;5003574;28;20182;-55
2022/01/08 02:44:40;;;;;;;1.95;1.52;;;5.00;99.90;;;;;;4999546;28;20193;-55
2022/01/08 02:47:06;;;;;;;2.13;1.08;;;5.10;99.90;;;;;;5008981;28;20695;-54
2022/01/08 02:49:34;;;;;;;1.63;1.10;;;5.60;99.90;;;;;;5011024;28;20211;-54
2022/01/08 02:51:59;;;;;;;1.65;1.15;;;5.10;99.90;;;;;;5007396;28;20463;-54
2022/01/08 02:54:25;;;;;;;1.92;1.50;;;5.30;99.90;;;;;;5006818;28;20680;-55
2022/01/08 02:56:51;;;;;;;1.83;1.40;;;5.00;99.90;;;;;;5006885;28;20272;-54
2022/01/08 02:59:18;;;;;;;2.00;1.37;;;4.70;99.90;;;;;;5007944;28;20212;-54
2022/01/08 03:01:44;;;;;;;2.38;1.45;;;5.20;99.90;;;;;;5004679;28;20244;-55
2022/01/08 03:04:11;;;;;;;1.20;1.08;;;4.70;99.90;;;;;;5010200;28;20185;-54
2022/01/08 03:06:38;;;;;;;1.65;1.55;;;5.20;99.90;;;;;;5011027;28;20621;-54
2022/01/08 03:09:04;;;;;;;1.27;1.17;;;4.80;99.90;;;;;;5004906;28;20221;-54
2022/01/08 03:11:30;;;;;;;1.30;1.20;;;4.70;99.90;;;;;;5012462;28;20180;-54
2022/01/08 03:13:56;;;;;;;2.45;1.42;;;4.50;99.90;;;;;;5007440;28;20196;-54
2022/01/08 03:16:21;;;;;;;2.90;1.10;;;5.00;99.90;;;;;;5001551;28;20724;-53
2022/01/08 03:18:48;;;;;;;3.80;1.33;;;5.00;99.90;;;;;;5005382;28;20602;-54
2022/01/08 03:21:17;;;;;;;3.55;1.38;;;5.10;99.90;;;;;;5011368;28;20185;-53
2022/01/08 03:23:52;;;;;;;1.48;1.23;;;5.20;99.90;;;;;;5014456;28;20581;-53
2022/01/08 03:26:21;;;;;;;1.40;1.30;;;4.30;99.90;;;;;;5006970;28;20184;-54
2022/01/08 03:28:47;;;;;;;3.53;1.13;;;5.00;99.90;;;;;;5002165;28;20628;-54
2022/01/08 03:31:14;;;;;;;2.05;1.30;;;5.00;99.90;;;;;;5003060;28;20189;-54
2022/01/08 03:33:41;;;;;;;1.90;1.45;;;4.80;99.90;;;;;;5005083;28;20602;-54
2022/01/08 03:36:07;;;;;;;2.50;1.50;;;5.10;99.90;;;;;;5007617;28;20606;-54
2022/01/08 03:38:32;;;;;;;1.80;1.60;;;4.90;99.90;;;;;;5004411;28;20192;-54
2022/01/08 03:40:58;;;;;;;2.30;1.37;;;4.90;99.90;;;;;;4999489;28;20466;-54
2022/01/08 03:43:24;;;;;;;1.60;1.40;;;5.00;99.90;;;;;;5004435;28;20928;-54
2022/01/08 03:45:50;;;;;;;1.57;1.47;;;4.70;99.90;;;;;;5004687;28;21001;-54
2022/01/08 03:48:27;;;;;;;1.50;1.40;;;4.60;99.90;;;;;;5008399;28;20191;-54
2022/01/08 03:50:54;;;;;;;3.45;1.67;;;4.90;99.90;;;;;;5004022;28;20467;-54
2022/01/08 03:53:20;;;;;;;1.80;1.70;;;4.80;99.90;;;;;;4997367;28;20188;-54
2022/01/08 03:55:46;;;;;;;2.10;1.90;;;4.80;99.90;;;;;;5009593;28;20212;-54
2022/01/08 03:58:11;;;;;;;2.17;1.63;;;4.60;99.90;;;;;;5007812;28;20492;-54
2022/01/08 04:00:37;;;;;;;1.77;1.60;;;4.60;99.90;;;;;;5004151;28;20563;-54
2022/01/08 04:03:03;;;;;;;2.20;1.73;;;4.40;99.90;;;;;;5010092;28;20199;-54
2022/01/08 04:05:29;;;;;;;2.40;2.10;;;4.60;99.90;;;;;;5011789;28;20438;-54
2022/01/08 04:07:55;;;;;;;2.20;2.00;;;4.50;99.90;;;;;;5010135;28;20178;-54
2022/01/08 04:10:20;;;;;;;2.90;2.03;;;4.50;99.90;;;;;;5001676;28;20303;-54
2022/01/08 04:12:51;;;;;;;2.27;2.07;;;4.00;99.90;;;;;;5014106;28;20270;-54
2022/01/08 04:17:53;;;;;;;2.50;1.90;;;3.80;99.90;;;;;;5012740;28;20215;-54
2022/01/08 04:20:20;;;;;;;2.30;2.15;;;4.40;99.90;;;;;;5014194;28;20736;-54
2022/01/08 04:22:50;;;;;;;2.28;2.08;;;4.70;99.90;;;;;;5010572;28;20634;-55
2022/01/08 04:25:19;;;;;;;3.30;2.20;;;3.80;99.90;;;;;;5008859;28;20179;-55
2022/01/08 04:27:45;;;;;;;2.63;2.30;;;4.10;99.90;;;;;;5008738;28;20704;-55
2022/01/08 04:30:11;;;;;;;2.57;2.20;;;4.50;99.90;;;;;;5006000;28;20247;-54
2022/01/08 04:32:37;;;;;;;3.00;2.30;;;4.80;99.90;;;;;;5015891;28;20469;-54
2022/01/08 04:35:03;;;;;;;2.30;2.10;;;4.00;99.90;;;;;;5010819;28;20254;-54
2022/01/08 04:37:29;;;;;;;2.28;2.13;;;4.60;99.90;;;;;;5013403;28;20198;-54
2022/01/08 04:39:55;;;;;;;3.30;2.27;;;4.90;99.90;;;;;;5008064;28;20716;-53
2022/01/08 04:42:21;;;;;;;2.03;1.93;;;4.50;99.90;;;;;;5010301;28;20446;-53
2022/01/08 04:44:47;;;;;;;2.97;2.23;;;4.80;99.90;;;;;;5007544;28;20180;-54
2022/01/08 04:47:13;;;;;;;2.60;2.00;;;4.40;99.90;;;;;;5005305;28;20275;-54
2022/01/08 04:49:38;;;;;;;1.83;1.73;;;4.60;99.90;;;;;;5008022;28;20759;-53
2022/01/08 04:52:04;;;;;;;2.20;2.00;;;4.60;99.90;;;;;;5009627;28;20195;-54
2022/01/08 04:54:30;;;;;;;2.75;1.95;;;4.30;99.90;;;;;;5008750;28;20663;-54
2022/01/08 04:56:56;;;;;;;2.80;2.10;;;4.30;99.90;;;;;;5014523;28;20189;-53
2022/01/08 04:59:21;;;;;;;1.93;1.70;;;4.40;99.90;;;;;;5006025;28;20280;-54
2022/01/08 05:01:47;;;;;;;2.20;2.00;;;4.80;99.90;;;;;;5005594;28;20492;-54
2022/01/08 05:04:13;;;;;;;2.17;1.97;;;4.40;99.90;;;;;;5002792;28;20249;-54
2022/01/08 05:06:39;;;;;;;3.67;2.22;;;4.20;99.90;;;;;;5012077;28;20571;-54
2022/01/08 05:09:04;;;;;;;2.23;2.03;;;4.50;99.90;;;;;;5011817;28;20224;-54
2022/01/08 05:11:31;;;;;;;4.70;1.90;;;4.10;99.90;;;;;;5013326;28;20196;-54
2022/01/08 05:13:57;;;;;;;2.35;1.90;;;4.20;99.90;;;;;;5001217;28;20176;-55
2022/01/08 05:16:25;;;;;;;2.20;1.80;;;4.20;99.90;;;;;;5002323;28;20187;-54
2022/01/08 05:18:53;;;;;;;2.40;2.20;;;4.20;99.90;;;;;;5011211;28;20572;-55
2022/01/08 05:21:24;;;;;;;1.77;1.67;;;4.10;99.90;;;;;;5008608;28;20188;-54
2022/01/08 05:23:51;;;;;;;2.03;1.92;;;4.20;99.90;;;;;;5008754;28;20765;-54
2022/01/08 05:26:17;;;;;;;1.80;1.70;;;3.50;99.90;;;;;;5012494;28;20282;-53
2022/01/08 05:28:44;;;;;;;1.70;1.60;;;4.00;99.90;;;;;;5008265;28;20198;-54
2022/01/08 05:31:11;;;;;;;3.60;2.35;;;3.60;99.90;;;;;;5004152;28;20250;-54
2022/01/08 05:33:37;;;;;;;2.03;1.83;;;4.50;99.90;;;;;;5011791;28;20215;-55
2022/01/08 05:36:02;;;;;;;2.17;1.97;;;4.10;99.90;;;;;;5010670;28;20208;-54
2022/01/08 05:38:28;;;;;;;2.30;1.80;;;4.20;99.90;;;;;;5006176;28;20450;-53
2022/01/08 05:40:54;;;;;;;1.43;1.30;;;4.30;99.90;;;;;;5013682;28;20446;-54
2022/01/08 05:43:20;;;;;;;2.03;1.60;;;4.30;99.90;;;;;;5013317;28;20214;-54
2022/01/08 05:45:45;;;;;;;3.10;2.30;;;4.30;99.90;;;;;;5004715;28;20453;-54
2022/01/08 05:48:12;;;;;;;4.43;1.60;;;4.00;99.90;;;;;;5008645;28;20222;-54
2022/01/08 05:50:38;;;;;;;1.67;1.58;;;4.10;99.90;;;;;;5018350;28;21018;-54
2022/01/08 05:53:04;;;;;;;1.57;1.47;;;4.20;99.90;;;;;;5016735;28;20219;-55
2022/01/08 05:55:29;;;;;;;1.40;1.30;;;4.20;99.90;;;;;;5002632;28;20239;-55
2022/01/08 05:57:55;;;;;;;3.20;2.70;;;3.90;99.90;;;;;;5004629;28;20191;-55
2022/01/08 06:00:21;;;;;;;6.07;3.80;;;4.60;99.90;;;;;;5006655;28;20476;-55
2022/01/08 06:02:46;;;;;;;1.77;1.57;;;4.10;99.90;;;;;;5012876;28;20187;-55
2022/01/08 06:05:12;;;;;;;3.23;2.30;;;4.10;99.90;;;;;;5009868;28;20631;-54
2022/01/08 06:07:38;;;;;;;1.60;1.30;;;3.50;99.90;;;;;;5009905;28;20226;-54
2022/01/08 06:10:04;;;;;;;3.37;2.40;;;4.50;99.90;;;;;;5008692;28;20289;-54
2022/01/08 06:12:29;;;;;;;1.20;1.10;;;4.30;99.90;;;;;;5008062;28;20516;-54
2022/01/08 06:14:55;;;;;;;1.37;1.07;;;4.20;99.90;;;;;;5006420;28;20270;-55
2022/01/08 06:17:21;;;;;;;1.13;1.00;;;4.10;99.90;;;;;;5010040;28;20552;-55
2022/01/08 06:19:46;;;;;;;2.13;1.50;;;3.90;99.90;;;;;;5004141;28;20206;-55
2022/01/08 06:22:12;;;;;;;1.03;0.93;;;4.20;99.90;;;;;;5000856;28;20195;-55
2022/01/08 06:24:38;;;;;;;0.63;0.60;;;3.90;99.90;;;;;;5003997;28;20401;-54
2022/01/08 06:27:04;;;;;;;1.60;1.20;;;4.30;99.90;;;;;;5008090;28;20191;-54
2022/01/08 06:29:29;;;;;;;0.80;0.80;;;3.80;99.90;;;;;;5007627;28;20230;-55
2022/01/08 06:31:55;;;;;;;0.90;0.70;;;4.00;99.90;;;;;;5011857;28;20566;-54
2022/01/08 06:34:21;;;;;;;1.53;1.00;;;3.80;99.90;;;;;;5006869;28;20585;-54
2022/01/08 06:36:47;;;;;;;0.70;0.60;;;3.40;99.90;;;;;;5015360;28;20184;-54
2022/01/08 06:39:17;;;;;;;1.47;0.80;;;3.80;99.90;;;;;;5005173;28;20691;-55
2022/01/08 06:41:43;;;;;;;1.08;0.90;;;3.80;99.90;;;;;;5008750;28;20182;-54
2022/01/08 06:44:08;;;;;;;1.00;0.90;;;3.80;99.90;;;;;;5006388;28;20521;-54
2022/01/08 06:46:34;;;;;;;0.90;0.70;;;3.90;99.90;;;;;;5007579;28;20568;-55
2022/01/08 06:49:00;;;;;;;1.37;1.27;;;3.60;99.90;;;;;;5007905;28;20214;-54
2022/01/08 06:51:26;;;;;;;1.15;0.85;;;3.80;99.90;;;;;;5011487;28;20457;-54
2022/01/08 06:53:52;;;;;;;1.00;0.90;;;3.40;99.90;;;;;;5003294;28;20720;-54
2022/01/08 06:56:18;;;;;;;0.98;0.88;;;3.90;99.90;;;;;;4994082;28;20183;-54
2022/01/08 06:58:45;;;;;;;0.98;0.88;;;4.30;99.90;;;;;;5005631;28;20814;-54
2022/01/08 07:01:11;;;;;;;1.23;1.00;;;3.80;99.90;;;;;;4999748;28;20190;-55
2022/01/08 07:03:37;;;;;;;0.95;0.88;;;4.10;99.90;;;;;;5008194;28;20188;-55
2022/01/08 07:06:03;;;;;;;1.10;1.00;;;4.10;99.90;;;;;;5011665;28;20183;-55
2022/01/08 07:08:29;;;;;;;0.85;0.80;;;3.70;99.90;;;;;;5011834;28;20672;-55
2022/01/08 07:10:55;;;;;;;0.70;0.70;;;3.80;99.90;;;;;;5008674;28;20215;-55
2022/01/08 07:13:20;;;;;;;0.70;0.70;;;3.80;99.90;;;;;;5012882;28;20707;-55
2022/01/08 07:15:46;;;;;;;1.30;1.17;;;3.80;99.90;;;;;;5012932;28;20218;-54
2022/01/08 07:18:12;;;;;;;1.00;1.00;;;4.40;99.90;;;;;;5003854;28;20202;-54
2022/01/08 07:20:38;;;;;;;1.10;0.90;;;3.90;99.90;;;;;;5017001;28;20207;-55
2022/01/08 07:23:03;;;;;;;1.23;1.13;;;3.80;99.90;;;;;;5012803;28;20246;-54
2022/01/08 07:25:29;;;;;;;2.73;1.43;;;3.90;99.90;;;;;;5002564;28;20187;-56
2022/01/08 07:27:55;;;;;;;1.23;1.13;;;4.10;99.90;;;;;;5009740;28;20656;-56
2022/01/08 07:30:20;;;;;;;1.60;1.50;;;3.10;99.90;;;;;;5000681;28;20253;-55
2022/01/08 07:32:49;;;;;;;1.23;1.13;;;3.80;99.90;;;;;;5008665;28;20306;-54
2022/01/08 07:35:16;;;;;;;1.40;1.20;;;4.00;99.90;;;;;;5011155;28;20211;-54
2022/01/08 07:37:43;;;;;;;1.90;1.40;;;3.30;99.90;;;;;;5008800;28;20225;-55
2022/01/08 07:40:11;;;;;;;1.65;1.30;;;3.90;99.90;;;;;;4998519;28;20699;-55
2022/01/08 07:42:37;;;;;;;1.60;1.50;;;3.60;99.90;;;;;;5008674;28;20194;-55
2022/01/08 07:45:04;;;;;;;2.47;1.80;;;3.50;99.90;;;;;;4995871;28;20179;-55
2022/01/08 07:47:30;;;;;;;2.15;1.35;;;3.90;99.90;;;;;;5019656;28;20185;-55
2022/01/08 07:49:55;;;;;;;2.30;1.87;;;3.60;99.90;;;;;;5013688;28;20667;-55
2022/01/08 07:52:21;;;;;;;2.55;1.67;;;3.90;99.90;;;;;;5004920;28;20195;-55
2022/01/08 07:54:47;;;;;;;2.27;2.07;;;4.10;99.90;;;;;;5005475;28;21391;-54
2022/01/08 07:57:13;;;;;;;1.97;1.60;;;3.90;99.90;;;;;;5005462;28;20473;-55
2022/01/08 07:59:38;;;;;;;2.13;1.60;;;4.10;99.90;;;;;;5004528;28;20238;-55
2022/01/08 08:02:04;;;;;;;2.07;1.80;;;3.80;99.90;;;;;;4997270;28;20184;-55
2022/01/08 08:04:30;;;;;;;2.33;1.93;;;3.90;99.90;;;;;;5005534;28;20196;-55
2022/01/08 08:06:55;;;;;;;2.70;1.80;;;4.10;99.90;;;;;;5003686;28;20183;-57
2022/01/08 08:09:21;;;;;;;2.20;2.00;;;4.00;99.90;;;;;;5002443;28;20215;-57
2022/01/08 08:11:47;;;;;;;2.50;2.17;;;3.60;99.90;;;;;;5008508;28;20187;-57
2022/01/08 08:14:12;;;;;;;3.90;2.00;;;4.20;99.90;;;;;;5007426;28;20653;-57
2022/01/08 08:16:38;;;;;;;2.80;2.23;;;4.00;99.90;;;;;;4998969;28;20197;-57
2022/01/08 08:19:04;;;;;;;1.80;1.70;;;3.40;99.90;;;;;;5007330;28;20289;-56
2022/01/08 08:21:30;;;;;;;3.73;2.27;;;4.20;99.90;;;;;;5004910;28;20266;-56
2022/01/08 08:23:56;;;;;;;5.20;2.05;;;3.50;99.90;;;;;;5001644;28;21025;-55
2022/01/08 08:26:22;;;;;;;2.37;2.17;;;4.20;99.90;;;;;;5006572;28;20214;-55
2022/01/08 08:28:47;;;;;;;2.10;1.80;;;4.20;99.90;;;;;;5006609;28;20632;-56
2022/01/08 08:31:13;;;;;;;3.63;2.33;;;4.30;99.90;;;;;;5000500;28;20192;-57
2022/01/08 08:33:39;;;;;;;2.63;1.73;;;4.40;99.90;;;;;;5002962;28;20185;-56
2022/01/08 08:36:06;;;;;;;4.65;2.10;;;4.20;99.90;;;;;;5005601;28;20191;-57
2022/01/08 08:38:32;;;;;;;2.28;1.13;;;4.40;99.90;;;;;;5000718;28;20218;-56
2022/01/08 08:40:58;;;;;;;2.15;1.45;;;4.30;99.90;;;;;;5013225;28;20591;-56
2022/01/08 08:43:24;;;;;;;1.95;1.42;;;4.40;99.90;;;;;;5000115;28;20200;-57
2022/01/08 08:45:50;;;;;;;1.70;1.60;;;4.00;99.90;;;;;;4994981;28;20242;-57
2022/01/08 08:48:16;;;;;;;2.00;1.65;;;4.80;99.90;;;;;;5008198;28;21177;-57
2022/01/08 08:50:43;;;;;;;2.08;1.50;;;4.30;99.90;;;;;;5007240;28;20730;-56
2022/01/08 08:53:09;;;;;;;3.20;1.40;;;4.60;99.90;;;;;;5000010;28;20268;-57
2022/01/08 08:55:35;;;;;;;1.93;1.20;;;3.90;99.90;;;;;;5009570;28;20280;-57
2022/01/08 08:58:00;;;;;;;3.73;1.43;;;4.70;99.90;;;;;;5005386;28;20365;-57
2022/01/08 09:00:26;;;;;;;1.67;1.20;;;4.80;99.90;;;;;;5006628;28;20213;-55
2022/01/08 09:02:52;;;;;;;3.67;1.50;;;4.40;99.90;;;;;;5010333;28;20657;-55
2022/01/08 09:05:18;;;;;;;1.67;1.40;;;4.70;99.90;;;;;;5011142;28;20263;-55
2022/01/08 09:07:44;;;;;;;2.07;1.50;;;4.90;99.90;;;;;;5007907;28;20270;-57
2022/01/08 09:10:11;;;;;;;1.83;1.42;;;5.00;99.90;;;;;;5015303;28;20215;-57
2022/01/08 09:12:41;;;;;;;4.13;1.38;;;4.70;99.90;;;;;;5001388;28;20559;-58
2022/01/08 09:15:08;;;;;;;2.03;1.67;;;4.60;99.90;;;;;;5000573;28;20263;-59
2022/01/08 09:17:36;;;;;;;2.08;1.75;;;5.00;99.90;;;;;;5001597;28;20239;-58
2022/01/08 09:20:04;;;;;;;1.40;1.23;;;4.80;99.90;;;;;;5011983;28;20504;-57
2022/01/08 09:22:31;;;;;;;1.90;1.75;;;5.10;99.90;;;;;;5016302;28;20180;-58
2022/01/08 09:24:56;;;;;;;1.35;1.25;;;4.20;99.90;;;;;;5011292;28;20199;-58
2022/01/08 09:27:23;;;;;;;2.00;1.90;;;4.80;99.90;;;;;;5002316;28;20192;-58
2022/01/08 09:29:49;;;;;;;2.38;1.80;;;5.00;99.90;;;;;;5005295;28;20939;-59
2022/01/08 09:32:17;;;;;;;3.75;1.55;;;4.90;99.90;;;;;;5013108;28;20200;-58
2022/01/08 09:34:44;;;;;;;2.55;1.58;;;4.30;99.90;;;;;;5013194;28;20188;-58
2022/01/08 09:37:09;;;;;;;2.67;1.55;;;4.90;99.90;;;;;;5010323;28;20201;-58
2022/01/08 09:39:35;;;;;;;1.60;1.40;;;4.40;99.90;;;;;;5004650;28;20223;-59
2022/01/08 09:42:03;;;;;;;1.58;1.48;;;5.10;99.90;;;;;;5011516;28;20187;-58
2022/01/08 09:44:29;;;;;;;3.00;1.80;;;5.00;99.90;;;;;;5002305;28;20188;-58
2022/01/08 09:46:54;;;;;;;1.93;1.73;;;5.10;99.90;;;;;;5005873;28;20192;-57
2022/01/08 09:49:20;;;;;;;2.00;1.63;;;5.00;99.90;;;;;;5008584;28;20470;-58
2022/01/08 09:51:46;;;;;;;2.03;1.83;;;5.20;99.90;;;;;;5012087;28;20229;-58
2022/01/08 09:54:11;;;;;;;2.40;1.70;;;5.10;99.90;;;;;;5010968;28;20212;-58
2022/01/08 09:56:37;;;;;;;2.83;2.27;;;4.90;99.90;;;;;;5005191;28;20213;-58
2022/01/08 09:59:03;;;;;;;2.90;1.90;;;5.00;99.90;;;;;;5012444;28;20690;-58
2022/01/08 10:01:32;;;;;;;3.73;2.00;;;5.20;99.90;;;;;;5011282;28;20209;-58
2022/01/08 10:03:58;;;;;;;1.85;1.63;;;5.20;99.90;;;;;;5004798;28;20469;-58
2022/01/08 10:06:29;;;;;;;1.75;1.65;;;5.60;99.90;;;;;;5010506;28;20688;-59
2022/01/08 10:08:56;;;;;;;2.38;2.17;;;5.60;99.90;;;;;;5007959;28;20261;-57
2022/01/08 10:11:22;;;;;;;2.25;1.50;;;5.50;99.90;;;;;;5003382;28;20181;-58
2022/01/08 10:13:59;;;;;;;1.80;1.70;;;5.40;99.90;;;;;;5005022;28;20182;-58
2022/01/08 10:19:23;;;;;;;2.40;2.00;;;5.60;99.90;;;;;;5009673;28;20221;-58
2022/01/08 10:21:54;;;;;;;1.95;1.75;;;5.50;99.90;;;;;;5005984;28;20752;-58
2022/01/08 10:24:29;;;;;;;5.03;2.03;;;5.50;99.90;;;;;;5005209;28;20224;-58
2022/01/08 10:27:05;;;;;;;2.80;1.85;;;5.30;99.90;;;;;;5002315;28;20185;-57
2022/01/08 10:29:32;;;;;;;3.38;1.88;;;4.80;99.90;;;;;;5007017;28;20217;-59
2022/01/08 10:31:59;;;;;;;4.45;1.95;;;5.60;99.90;;;;;;5005682;28;20217;-58
2022/01/08 10:34:27;;;;;;;2.80;1.75;;;5.10;99.90;;;;;;5003004;28;20189;-57
2022/01/08 10:36:56;;;;;;;1.70;1.60;;;5.40;99.90;;;;;;5010202;28;20596;-58
2022/01/08 10:39:24;;;;;;;2.88;1.90;;;5.40;99.90;;;;;;5010690;28;20624;-59
2022/01/08 10:41:52;;;;;;;1.80;1.70;;;4.90;99.90;;;;;;5002374;28;20239;-59
2022/01/08 10:44:20;;;;;;;2.28;1.70;;;5.40;99.90;;;;;;5013527;28;20180;-58
2022/01/08 10:46:57;;;;;;;3.70;1.77;;;5.30;99.90;;;;;;5007508;28;20186;-58
2022/01/08 10:49:48;;;;;;;4.18;1.80;;;5.60;99.90;;;;;;4999591;28;20224;-58
2022/01/08 10:52:20;;;;;;;3.08;1.90;;;5.50;99.90;;;;;;4998387;28;20654;-58
2022/01/08 10:55:00;;;;;;;1.95;1.70;;;5.10;99.90;;;;;;5011381;28;20197;-58
2022/01/08 10:57:40;;;;;;;1.80;1.70;;;5.40;99.90;;;;;;5004472;28;20542;-57
2022/01/08 11:00:09;;;;;;;4.13;1.60;;;5.30;99.90;;;;;;4997094;28;20208;-58
2022/01/08 11:02:35;;;;;;;2.65;1.75;;;5.50;99.90;;;;;;5003772;28;20226;-58
2022/01/08 11:05:06;;;;;;;2.25;1.65;;;5.00;99.70;;;;;;5000767;28;20696;-57
2022/01/08 11:07:33;;;;;;;2.75;1.58;;;5.40;99.90;;;;;;5008857;28;20785;-58
2022/01/08 11:10:04;;;;;;;6.45;2.20;;;5.60;99.90;;;;;;4996853;28;20220;-57
2022/01/08 11:12:36;;;;;;;3.58;1.80;;;4.90;99.40;;;;;;5011125;28;20246;-57
2022/01/08 11:17:46;;;;;;;1.70;1.60;;;5.70;99.70;;;;;;5004245;28;20225;-57
2022/01/08 11:20:19;;;;;;;2.25;1.60;;;5.20;99.90;;;;;;5000599;28;20202;-58
2022/01/08 11:22:49;;;;;;;2.13;1.80;;;5.70;99.60;;;;;;5007610;28;20197;-58
2022/01/08 11:25:23;;;;;;;2.55;1.40;;;6.00;98.90;;;;;;5001520;28;20202;-58
2022/01/08 11:28:01;;;;;;;1.95;1.35;;;6.20;97.40;;;;;;5001432;28;20183;-58
2022/01/08 11:30:51;;;;;;;2.10;1.50;;;6.30;96.20;;;;;;5006454;28;20218;-58
2022/01/08 11:33:26;;;;;;;2.25;1.40;;;5.90;97.00;;;;;;4997412;28;20281;-56
2022/01/08 11:35:53;;;;;;;2.28;1.40;;;6.20;97.20;;;;;;5013882;28;20209;-56
2022/01/08 11:38:20;;;;;;;2.53;1.40;;;6.00;97.60;;;;;;5007927;28;20214;-56
2022/01/08 11:40:49;;;;;;;2.38;1.48;;;5.70;97.70;;;;;;5009057;28;20637;-57
2022/01/08 11:43:17;;;;;;;2.58;1.45;;;6.20;97.30;;;;;;5004989;28;20309;-57
2022/01/08 11:45:48;;;;;;;2.80;1.67;;;6.40;96.90;;;;;;4996648;28;20230;-57
2022/01/08 11:48:17;;;;;;;1.88;1.20;;;6.80;97.00;;;;;;5005638;28;20709;-57
2022/01/08 11:50:54;;;;;;;1.42;1.33;;;6.70;95.90;;;;;;5019373;28;20260;-56
2022/01/08 11:53:47;;;;;;;3.17;1.40;;;6.80;96.00;;;;;;5006418;28;20179;-57
2022/01/08 11:56:28;;;;;;;4.15;1.40;;;6.60;95.60;;;;;;4997394;28;20556;-58
2022/01/08 11:59:12;;;;;;;2.00;1.50;;;6.40;95.60;;;;;;5011388;28;20206;-57
2022/01/08 12:01:41;;;;;;;2.85;1.75;;;6.40;97.10;;;;;;4997167;28;20237;-57
2022/01/08 12:04:26;;;;;;;2.83;1.52;;;6.40;96.40;;;;;;4991690;28;20214;-57
2022/01/08 12:06:52;;;;;;;1.73;1.63;;;6.50;96.40;;;;;;5000336;28;20643;-57
2022/01/08 12:11:47;;;;;;;2.25;1.58;;;6.70;96.50;;;;;;5013855;28;20185;-56
2022/01/08 12:14:18;;;;;;;3.27;1.43;;;6.60;96.60;;;;;;5006578;28;20187;-56
2022/01/08 12:16:49;;;;;;;3.90;1.60;;;6.10;96.70;;;;;;5006743;28;20649;-56
2022/01/08 12:19:33;;;;;;;1.60;1.20;;;6.10;97.20;;;;;;5008658;28;20625;-56
2022/01/08 12:22:01;;;;;;;3.47;1.95;;;6.40;97.20;;;;;;5002166;28;20191;-57
2022/01/08 12:24:27;;;;;;;2.50;2.00;;;6.30;97.20;;;;;;5005806;28;20219;-56
2022/01/08 12:26:57;;;;;;;4.07;1.80;;;6.30;97.30;;;;;;5007472;28;20191;-56
2022/01/08 12:29:36;;;;;;;3.20;2.30;;;6.40;97.80;;;;;;4999797;28;20214;-56
2022/01/08 12:32:33;;;;;;;1.80;1.35;;;6.50;97.40;;;;;;5030030;28;20280;-56
2022/01/08 12:35:37;;;;;;;3.75;2.28;;;6.20;97.80;;;;;;5018270;28;20215;-57
2022/01/08 12:38:05;;;;;;;1.50;1.40;;;6.00;97.40;;;;;;5010732;28;20240;-57
2022/01/08 12:40:51;;;;;;;1.58;1.40;;;6.20;98.00;;;;;;5015323;28;20233;-56
2022/01/08 12:43:31;;;;;;;3.20;1.73;;;5.80;98.30;;;;;;5011634;28;20666;-56
2022/01/08 12:46:17;;;;;;;3.10;1.80;;;5.40;98.80;;;;;;5000966;28;20202;-56
2022/01/08 12:49:12;;;;;;;3.50;1.80;;;5.40;99.30;;;;;;4996974;28;20203;-56
2022/01/08 12:51:41;;;;;;;3.63;2.30;;;5.70;99.70;;;;;;5012473;28;20693;-57
2022/01/08 12:54:07;;;;;;;2.85;1.52;;;5.70;99.70;;;;;;5013947;28;20272;-56
2022/01/08 12:56:32;;;;;;;5.27;2.00;;;5.50;99.60;;;;;;4997248;28;20273;-56
2022/01/08 12:59:01;;;;;;;2.77;1.70;;;5.50;99.10;;;;;;5014774;28;20615;-56
2022/01/08 13:01:28;;;;;;;3.00;2.25;;;5.50;98.60;;;;;;4998702;28;20445;-56
2022/01/08 13:03:56;;;;;;;2.10;1.65;;;5.40;98.70;;;;;;5004851;28;20188;-56
2022/01/08 13:06:33;;;;;;;2.83;1.92;;;5.50;98.80;;;;;;5013420;28;20192;-56
2022/01/08 13:09:00;;;;;;;1.85;1.75;;;5.60;99.10;;;;;;5005774;28;20221;-56
2022/01/08 13:11:29;;;;;;;1.88;1.40;;;5.40;98.60;;;;;;5015428;28;20237;-56
2022/01/08 13:14:00;;;;;;;2.78;1.55;;;5.60;98.90;;;;;;5011856;28;20205;-56
2022/01/08 13:16:36;;;;;;;1.65;1.55;;;5.60;99.10;;;;;;5003513;28;20230;-57
2022/01/08 13:19:03;;;;;;;2.38;1.70;;;5.60;98.70;;;;;;5019234;28;20685;-57
2022/01/08 13:21:35;;;;;;;3.10;2.05;;;5.80;98.20;;;;;;5021670;28;20202;-56
2022/01/08 13:24:04;;;;;;;2.10;1.40;;;5.50;98.40;;;;;;5000429;28;20586;-57
2022/01/08 13:26:33;;;;;;;2.95;2.15;;;5.60;98.10;;;;;;5008048;28;20183;-58
2022/01/08 13:29:00;;;;;;;2.20;1.70;;;4.90;98.10;;;;;;5013238;28;20203;-57
2022/01/08 13:31:40;;;;;;;2.65;1.92;;;5.40;98.40;;;;;;5006016;28;20520;-57
2022/01/08 13:34:06;;;;;;;3.35;1.90;;;5.50;98.40;;;;;;5017691;28;20275;-57